createdAt,value
2023-04-14T00:00:24.475Z,1.30
2023-04-14T00:01:24.435Z,1.50
2023-04-14T00:02:24.580Z,1.50
2023-04-14T00:03:24.742Z,1.60
2023-04-14T00:04:24.522Z,1.60
2023-04-14T00:05:24.380Z,1.50
2023-04-14T00:06:24.381Z,1.60
2023-04-14T00:07:24.374Z,1.50
2023-04-14T00:08:24.351Z,1.60
2023-04-14T00:09:24.358Z,1.70
2023-04-14T00:10:24.313Z,1.60
2023-04-14T00:11:24.323Z,1.70
2023-04-14T00:12:24.299Z,2.20
2023-04-14T00:13:24.329Z,1.60
2023-04-14T00:14:24.286Z,1.50
2023-04-14T00:15:24.265Z,1.80
2023-04-14T00:16:24.330Z,1.60
2023-04-14T00:17:24.288Z,1.70
2023-04-14T00:18:24.248Z,1.60
2023-04-14T00:19:24.217Z,1.70
2023-04-14T00:20:24.187Z,1.30
2023-04-14T00:21:24.178Z,1.70
2023-04-14T00:22:24.160Z,1.60
2023-04-14T00:23:24.208Z,1.60
2023-04-14T00:24:24.146Z,1.70
2023-04-14T00:25:24.149Z,1.80
2023-04-14T00:26:24.129Z,1.70
2023-04-14T00:27:24.111Z,1.50
2023-04-14T00:28:24.145Z,1.60
2023-04-14T00:29:24.082Z,1.80
2023-04-14T00:30:24.097Z,1.60
2023-04-14T00:31:24.101Z,1.50
2023-04-14T00:32:24.060Z,1.50
2023-04-14T00:33:24.089Z,1.70
2023-04-14T00:34:24.023Z,1.70
2023-04-14T00:35:24.025Z,1.90
2023-04-14T00:36:24.027Z,1.70
2023-04-14T00:37:23.981Z,1.80
2023-04-14T00:38:23.996Z,1.80
2023-04-14T00:39:23.986Z,1.60
2023-04-14T00:40:23.943Z,1.90
2023-04-14T00:41:23.930Z,1.80
2023-04-14T00:42:23.920Z,1.90
2023-04-14T00:43:23.908Z,1.90
2023-04-14T00:44:23.938Z,1.80
2023-04-14T00:45:23.880Z,2.20
2023-04-14T00:46:23.894Z,1.90
2023-04-14T00:47:23.882Z,1.90
2023-04-14T00:48:23.839Z,1.80
2023-04-14T00:49:23.853Z,2.10
2023-04-14T00:50:23.832Z,1.80
2023-04-14T00:51:23.803Z,1.80
2023-04-14T00:52:23.780Z,1.70
2023-04-14T00:53:23.789Z,1.90
2023-04-14T00:54:23.803Z,1.60
2023-04-14T00:55:23.754Z,1.80
2023-04-14T00:56:23.739Z,2.30
2023-04-14T00:57:23.775Z,2.00
2023-04-14T00:58:23.725Z,1.90
2023-04-14T00:59:23.756Z,1.70
2023-04-14T01:00:23.739Z,1.80
2023-04-14T01:01:23.767Z,1.50
2023-04-14T01:02:23.873Z,1.80
2023-04-14T01:03:23.760Z,1.60
2023-04-14T01:04:24.354Z,1.60
2023-04-14T01:05:23.683Z,1.70
2023-04-14T01:06:23.612Z,1.80
2023-04-14T01:07:23.603Z,1.80
2023-04-14T01:08:23.639Z,1.60
2023-04-14T01:09:23.576Z,1.60
2023-04-14T01:10:23.581Z,1.70
2023-04-14T01:11:23.576Z,1.80
2023-04-14T01:12:23.554Z,1.80
2023-04-14T01:13:23.560Z,1.70
2023-04-14T01:14:23.552Z,1.50
2023-04-14T01:15:23.510Z,1.90
2023-04-14T01:16:23.547Z,1.90
2023-04-14T01:17:23.514Z,2.00
2023-04-14T01:18:23.499Z,1.90
2023-04-14T01:19:23.480Z,1.80
2023-04-14T01:20:23.454Z,2.20
2023-04-14T01:21:23.465Z,2.20
2023-04-14T01:22:23.446Z,1.90
2023-04-14T01:23:23.398Z,1.80
2023-04-14T01:24:23.441Z,1.60
2023-04-14T01:25:23.363Z,1.80
2023-04-14T01:26:23.361Z,2.10
2023-04-14T01:27:23.370Z,1.90
2023-04-14T01:28:23.321Z,2.00
2023-04-14T01:29:23.347Z,2.00
2023-04-14T01:30:23.295Z,1.80
2023-04-14T01:31:23.405Z,2.00
2023-04-14T01:32:23.293Z,1.80
2023-04-14T01:33:30.768Z,1.90
2023-04-14T01:34:23.254Z,2.20
2023-04-14T01:35:23.223Z,2.20
2023-04-14T01:36:23.219Z,2.00
2023-04-14T01:37:23.198Z,2.20
2023-04-14T01:38:30.204Z,2.20
2023-04-14T01:39:23.188Z,2.00
2023-04-14T01:40:23.165Z,2.10
2023-04-14T01:41:23.154Z,2.50
2023-04-14T01:42:23.138Z,2.20
2023-04-14T01:43:23.136Z,2.10
2023-04-14T01:44:23.131Z,2.10
2023-04-14T01:45:23.136Z,2.20
2023-04-14T01:46:23.170Z,2.10
2023-04-14T01:47:23.106Z,2.30
2023-04-14T01:48:23.072Z,2.20
2023-04-14T01:49:23.095Z,2.30
2023-04-14T01:50:23.060Z,2.10
2023-04-14T01:51:23.070Z,2.10
2023-04-14T01:52:23.058Z,2.10
2023-04-14T01:53:23.007Z,2.00
2023-04-14T01:54:23.035Z,2.30
2023-04-14T01:55:22.982Z,2.20
2023-04-14T01:56:22.997Z,2.40
2023-04-14T01:57:23.200Z,2.20
2023-04-14T01:58:22.956Z,2.20
2023-04-14T01:59:22.950Z,1.80
2023-04-14T02:00:22.928Z,2.20
2023-04-14T02:01:22.949Z,2.30
2023-04-14T02:02:23.009Z,2.30
2023-04-14T02:03:22.920Z,2.00
2023-04-14T02:04:22.958Z,2.40
2023-04-14T02:05:22.903Z,2.00
2023-04-14T02:06:22.845Z,2.30
2023-04-14T02:07:22.838Z,2.20
2023-04-14T02:08:22.816Z,2.00
2023-04-14T02:09:22.848Z,2.10
2023-04-14T02:10:22.885Z,2.10
2023-04-14T02:11:22.783Z,2.20
2023-04-14T02:12:22.782Z,2.10
2023-04-14T02:13:22.769Z,2.50
2023-04-14T02:14:22.758Z,2.20
2023-04-14T02:15:22.741Z,2.30
2023-04-14T02:16:22.733Z,2.40
2023-04-14T02:17:22.724Z,2.40
2023-04-14T02:18:22.684Z,2.20
2023-04-14T02:19:22.714Z,2.50
2023-04-14T02:20:22.682Z,2.20
2023-04-14T02:21:22.689Z,2.30
2023-04-14T02:22:22.637Z,2.00
2023-04-14T02:23:22.613Z,2.20
2023-04-14T02:24:22.626Z,2.60
2023-04-14T02:25:22.600Z,2.30
2023-04-14T02:26:22.608Z,2.40
2023-04-14T02:27:22.568Z,2.00
2023-04-14T02:28:22.551Z,2.20
2023-04-14T02:29:22.557Z,2.40
2023-04-14T02:30:22.569Z,2.30
2023-04-14T02:31:22.650Z,2.20
2023-04-14T02:32:22.570Z,2.50
2023-04-14T02:33:22.500Z,2.60
2023-04-14T02:34:22.533Z,2.40
2023-04-14T02:35:22.479Z,2.50
2023-04-14T02:36:22.452Z,2.00
2023-04-14T02:37:22.481Z,2.40
2023-04-14T02:38:22.455Z,2.50
2023-04-14T02:39:22.426Z,2.20
2023-04-14T02:40:22.424Z,2.10
2023-04-14T02:41:22.418Z,2.10
2023-04-14T02:42:22.382Z,2.70
2023-04-14T02:43:22.381Z,2.80
2023-04-14T02:44:22.360Z,2.50
2023-04-14T02:45:22.394Z,2.30
2023-04-14T02:46:22.391Z,2.60
2023-04-14T02:47:22.332Z,2.30
2023-04-14T02:48:22.299Z,2.60
2023-04-14T02:49:22.296Z,2.80
2023-04-14T02:50:22.328Z,2.70
2023-04-14T02:51:22.265Z,2.50
2023-04-14T02:52:22.281Z,2.50
2023-04-14T02:53:22.285Z,2.00
2023-04-14T02:54:22.251Z,2.80
2023-04-14T02:55:22.214Z,2.50
2023-04-14T02:56:22.222Z,2.80
2023-04-14T02:57:22.188Z,2.30
2023-04-14T02:58:22.189Z,2.70
2023-04-14T02:59:22.197Z,2.70
2023-04-14T03:00:22.151Z,2.80
2023-04-14T03:01:22.177Z,3.10
2023-04-14T03:02:22.328Z,2.80
2023-04-14T03:03:22.198Z,3.00
2023-04-14T03:04:22.125Z,2.70
2023-04-14T03:05:22.108Z,3.20
2023-04-14T03:06:22.101Z,3.00
2023-04-14T03:07:22.068Z,3.00
2023-04-14T03:08:22.052Z,2.80
2023-04-14T03:09:22.019Z,3.00
2023-04-14T03:10:22.058Z,3.00
2023-04-14T03:11:21.997Z,3.10
2023-04-14T03:12:22.004Z,3.10
2023-04-14T03:13:21.986Z,3.10
2023-04-14T03:14:28.960Z,3.00
2023-04-14T03:15:28.958Z,3.00
2023-04-14T03:16:22.000Z,2.90
2023-04-14T03:17:21.980Z,3.00
2023-04-14T03:18:29.414Z,3.10
2023-04-14T03:19:28.893Z,3.10
2023-04-14T03:20:28.910Z,3.00
2023-04-14T03:21:21.881Z,3.10
2023-04-14T03:22:21.868Z,2.90
2023-04-14T03:23:21.865Z,3.20
2023-04-14T03:24:21.839Z,2.80
2023-04-14T03:25:21.854Z,2.70
2023-04-14T03:26:21.820Z,3.30
2023-04-14T03:27:21.809Z,3.20
2023-04-14T03:28:21.788Z,2.90
2023-04-14T03:29:21.771Z,3.00
2023-04-14T03:30:21.785Z,3.20
2023-04-14T03:31:21.784Z,3.20
2023-04-14T03:32:21.777Z,3.20
2023-04-14T03:33:21.740Z,3.20
2023-04-14T03:34:21.727Z,3.40
2023-04-14T03:35:21.714Z,3.90
2023-04-14T03:36:21.682Z,3.40
2023-04-14T03:37:21.663Z,3.70
2023-04-14T03:38:21.681Z,4.00
2023-04-14T03:39:21.662Z,4.40
2023-04-14T03:40:21.649Z,3.50
2023-04-14T03:41:21.602Z,3.80
2023-04-14T03:42:21.631Z,4.20
2023-04-14T03:43:21.592Z,3.90
2023-04-14T03:44:21.591Z,3.90
2023-04-14T03:45:21.592Z,3.70
2023-04-14T03:46:21.640Z,3.80
2023-04-14T03:47:21.583Z,3.60
2023-04-14T03:48:21.533Z,3.90
2023-04-14T03:49:21.539Z,4.00
2023-04-14T04:03:00.415Z,3.70
2023-04-14T04:04:00.239Z,4.00
2023-04-14T04:05:00.289Z,4.10
2023-04-14T04:06:00.114Z,4.20
2023-04-14T04:07:00.065Z,4.80
2023-04-14T04:08:00.089Z,4.70
2023-04-14T04:09:00.189Z,4.60
2023-04-14T04:10:00.056Z,4.50
2023-04-14T04:11:00.028Z,4.80
2023-04-14T04:12:00.006Z,4.70
2023-04-14T04:13:00.008Z,4.80
2023-04-14T04:13:59.983Z,4.60
2023-04-14T04:14:59.958Z,5.00
2023-04-14T04:15:59.951Z,5.30
2023-04-14T04:16:59.963Z,5.10
2023-04-14T04:17:59.975Z,4.90
2023-04-14T04:19:00.234Z,5.50
2023-04-14T04:19:59.887Z,5.50
2023-04-14T04:20:59.907Z,5.20
2023-04-14T04:21:59.866Z,5.70
2023-04-14T04:22:59.864Z,5.40
2023-04-14T04:23:59.834Z,6.00
2023-04-14T04:24:59.818Z,5.00
2023-04-14T04:25:59.827Z,5.10
2023-04-14T04:26:59.826Z,5.70
2023-04-14T04:27:59.780Z,5.70
2023-04-14T04:29:00.005Z,5.50
2023-04-14T04:29:59.812Z,5.70
2023-04-14T04:30:59.795Z,6.00
2023-04-14T04:31:59.815Z,5.30
2023-04-14T04:32:59.755Z,5.70
2023-04-14T04:33:59.715Z,5.70
2023-04-14T04:34:59.745Z,6.40
2023-04-14T04:35:59.694Z,6.10
2023-04-14T04:36:59.678Z,6.00
2023-04-14T04:37:59.721Z,6.00
2023-04-14T04:38:59.915Z,6.30
2023-04-14T04:39:59.628Z,6.60
2023-04-14T04:40:59.673Z,9.90
2023-04-14T04:41:59.602Z,8.10
2023-04-14T04:42:59.628Z,7.20
2023-04-14T04:43:59.591Z,6.80
2023-04-14T04:44:59.558Z,7.20
2023-04-14T04:45:59.585Z,7.10
2023-04-14T04:46:59.563Z,8.00
2023-04-14T04:47:59.601Z,7.40
2023-04-14T04:48:59.814Z,7.10
2023-04-14T04:49:59.493Z,6.90
2023-04-14T04:50:59.540Z,6.70
2023-04-14T04:51:59.476Z,7.70
2023-04-14T04:52:59.506Z,7.90
2023-04-14T04:53:59.449Z,7.50
2023-04-14T04:54:59.437Z,7.50
2023-04-14T04:55:59.448Z,8.80
2023-04-14T04:56:59.454Z,8.50
2023-04-14T04:57:59.406Z,7.50
2023-04-14T04:58:59.914Z,8.40
2023-04-14T04:59:59.428Z,8.90
2023-04-14T05:00:59.426Z,8.80
2023-04-14T05:01:59.422Z,8.90
2023-04-14T05:02:59.565Z,8.60
2023-04-14T05:03:59.346Z,9.90
2023-04-14T05:04:59.319Z,9.50
2023-04-14T05:05:59.317Z,9.40
2023-04-14T05:06:59.313Z,9.30
2023-04-14T05:07:59.314Z,9.40
2023-04-14T05:08:59.560Z,9.90
2023-04-14T05:09:59.296Z,9.80
2023-04-14T05:10:59.240Z,9.20
2023-04-14T05:11:59.264Z,9.80
2023-04-14T05:12:59.216Z,9.70
2023-04-14T05:13:59.208Z,9.40
2023-04-14T05:14:59.180Z,9.30
2023-04-14T05:15:59.229Z,10.00
2023-04-14T05:16:59.161Z,9.20
2023-04-14T05:18:06.177Z,10.30
2023-04-14T05:18:59.647Z,10.00
2023-04-14T05:19:59.129Z,10.50
2023-04-14T05:20:59.135Z,10.00
2023-04-14T05:21:59.090Z,9.70
2023-04-14T05:22:59.072Z,9.40
2023-04-14T05:23:59.042Z,10.10
2023-04-14T05:24:59.054Z,9.80
2023-04-14T05:26:11.197Z,10.20
2023-04-14T05:27:13.640Z,10.00
2023-04-14T05:28:00.013Z,9.90
2023-04-14T05:28:59.096Z,9.70
2023-04-14T05:29:58.980Z,10.40
2023-04-14T05:31:01.263Z,10.30
2023-04-14T05:31:58.955Z,10.80
2023-04-14T05:32:58.990Z,9.90
2023-04-14T05:33:59.096Z,9.70
2023-04-14T05:34:58.926Z,9.00
2023-04-14T05:35:58.925Z,10.50
2023-04-14T05:36:58.908Z,11.00
2023-04-14T05:37:58.877Z,10.90
2023-04-14T05:38:58.865Z,11.20
2023-04-14T05:39:58.851Z,10.90
2023-04-14T05:40:58.841Z,10.60
2023-04-14T05:41:58.856Z,10.50
2023-04-14T05:42:58.854Z,10.70
2023-04-14T05:43:58.911Z,10.80
2023-04-14T05:44:58.788Z,10.10
2023-04-14T05:45:58.793Z,11.20
2023-04-14T05:46:58.870Z,10.60
2023-04-14T05:47:58.929Z,10.50
2023-04-14T05:48:58.855Z,10.00
2023-04-14T05:49:58.716Z,10.40
2023-04-14T05:50:58.707Z,10.10
2023-04-14T05:51:58.715Z,9.60
2023-04-14T05:52:58.718Z,10.50
2023-04-14T05:53:58.929Z,9.80
2023-04-14T05:54:58.651Z,11.00
2023-04-14T05:55:58.647Z,10.00
2023-04-14T05:56:58.644Z,9.80
2023-04-14T05:57:58.651Z,9.70
2023-04-14T05:58:58.654Z,10.00
2023-04-14T05:59:58.602Z,10.80
2023-04-14T06:00:58.582Z,10.30
2023-04-14T06:01:58.665Z,10.40
2023-04-14T06:02:58.830Z,9.90
2023-04-14T06:03:58.905Z,10.10
2023-04-14T06:04:58.585Z,10.60
2023-04-14T06:05:58.516Z,10.00
2023-04-14T06:06:58.527Z,9.90
2023-04-14T06:07:58.513Z,11.20
2023-04-14T06:08:58.639Z,9.60
2023-04-14T06:09:58.443Z,9.10
2023-04-14T06:10:58.449Z,9.00
2023-04-14T06:11:58.444Z,9.10
2023-04-14T06:12:58.442Z,7.80
2023-04-14T06:13:58.491Z,9.40
2023-04-14T06:14:58.395Z,9.40
2023-04-14T06:15:58.403Z,8.60
2023-04-14T06:16:58.410Z,8.60
2023-04-14T06:17:58.434Z,8.60
2023-04-14T06:18:58.526Z,8.50
2023-04-14T06:19:58.322Z,7.80
2023-04-14T06:20:58.341Z,8.30
2023-04-14T06:21:58.315Z,9.10
2023-04-14T06:22:58.299Z,9.20
2023-04-14T06:23:58.294Z,9.30
2023-04-14T06:24:58.284Z,9.20
2023-04-14T06:25:58.250Z,8.60
2023-04-14T06:26:58.256Z,8.80
2023-04-14T06:27:58.254Z,8.90
2023-04-14T06:28:58.356Z,9.30
2023-04-14T06:29:58.184Z,8.60
2023-04-14T06:30:58.183Z,8.40
2023-04-14T06:31:58.208Z,8.50
2023-04-14T06:32:58.267Z,8.20
2023-04-14T06:33:58.183Z,8.20
2023-04-14T06:34:58.197Z,8.00
2023-04-14T06:35:58.118Z,8.20
2023-04-14T06:36:58.120Z,8.30
2023-04-14T06:37:58.104Z,8.00
2023-04-14T06:38:58.224Z,7.50
2023-04-14T06:39:58.078Z,7.10
2023-04-14T06:40:58.048Z,8.00
2023-04-14T06:41:58.035Z,8.00
2023-04-14T06:42:58.050Z,7.60
2023-04-14T06:43:58.004Z,7.60
2023-04-14T06:44:58.011Z,7.30
2023-04-14T06:45:58.047Z,7.50
2023-04-14T06:46:57.988Z,7.60
2023-04-14T06:47:58.027Z,7.40
2023-04-14T06:48:57.949Z,7.40
2023-04-14T06:49:57.925Z,7.20
2023-04-14T06:50:57.928Z,7.20
2023-04-14T06:51:57.977Z,6.60
2023-04-14T06:52:57.943Z,6.70
2023-04-14T06:53:57.923Z,6.70
2023-04-14T06:54:57.873Z,7.10
2023-04-14T06:55:57.863Z,7.30
2023-04-14T06:56:59.509Z,7.20
2023-04-14T06:57:57.845Z,6.90
2023-04-14T06:58:57.828Z,6.50
2023-04-14T06:59:57.827Z,6.30
2023-04-14T07:00:57.848Z,6.70
2023-04-14T07:01:57.840Z,6.70
2023-04-14T07:02:57.934Z,6.40
2023-04-14T07:03:57.766Z,6.80
2023-04-14T07:04:57.808Z,6.30
2023-04-14T07:05:57.729Z,6.20
2023-04-14T07:06:57.729Z,6.10
2023-04-14T07:07:57.712Z,6.20
2023-04-14T07:08:57.700Z,5.90
2023-04-14T07:09:57.717Z,6.00
2023-04-14T07:10:57.671Z,5.90
2023-04-14T07:11:57.645Z,5.60
2023-04-14T07:12:57.673Z,5.90
2023-04-14T07:13:57.628Z,5.60
2023-04-14T07:14:57.626Z,5.40
2023-04-14T07:15:57.624Z,5.20
2023-04-14T07:16:57.599Z,5.60
2023-04-14T07:17:59.937Z,5.30
2023-04-14T07:18:57.569Z,5.10
2023-04-14T07:19:57.609Z,5.60
2023-04-14T07:20:57.554Z,5.50
2023-04-14T07:21:57.526Z,5.80
2023-04-14T07:22:57.523Z,5.60
2023-04-14T07:23:57.499Z,5.50
2023-04-14T07:24:57.491Z,5.60
2023-04-14T07:25:57.480Z,5.40
2023-04-14T07:26:57.518Z,5.30
2023-04-14T07:28:03.283Z,5.90
2023-04-14T07:28:58.448Z,5.40
2023-04-14T07:29:57.428Z,5.30
2023-04-14T07:30:57.458Z,5.30
2023-04-14T07:31:57.403Z,5.30
2023-04-14T07:32:57.423Z,5.20
2023-04-14T07:33:57.369Z,5.20
2023-04-14T07:34:58.780Z,5.40
2023-04-14T07:36:57.362Z,5.10
2023-04-14T07:37:57.334Z,4.90
2023-04-14T07:38:57.331Z,5.00
2023-04-14T07:39:57.300Z,4.90
2023-04-14T07:40:57.318Z,5.00
2023-04-14T07:41:57.283Z,5.50
2023-04-14T07:42:57.270Z,4.80
2023-04-14T07:43:57.248Z,5.10
2023-04-14T07:44:57.238Z,5.00
2023-04-14T07:45:57.243Z,4.90
2023-04-14T07:46:57.231Z,4.70
2023-04-14T07:47:57.878Z,5.00
2023-04-14T07:48:57.180Z,4.60
2023-04-14T07:49:57.162Z,4.40
2023-04-14T07:50:57.170Z,4.80
2023-04-14T07:51:57.146Z,5.20
2023-04-14T07:52:57.149Z,5.20
2023-04-14T07:53:57.136Z,4.80
2023-04-14T07:54:57.110Z,4.90
2023-04-14T07:55:57.102Z,4.50
2023-04-14T07:56:57.125Z,5.00
2023-04-14T07:57:57.081Z,5.20
2023-04-14T07:58:57.086Z,5.10
2023-04-14T07:59:57.027Z,4.60
2023-04-14T08:00:57.034Z,5.10
2023-04-14T08:01:57.145Z,5.00
2023-04-14T08:02:57.112Z,4.70
2023-04-14T08:03:57.333Z,5.20
2023-04-14T08:04:57.021Z,5.10
2023-04-14T08:05:56.962Z,5.00
2023-04-14T08:06:56.978Z,4.90
2023-04-14T08:07:56.933Z,4.70
2023-04-14T08:08:56.942Z,4.70
2023-04-14T08:09:56.916Z,5.60
2023-04-14T08:10:56.898Z,5.40
2023-04-14T08:11:56.926Z,5.20
2023-04-14T08:12:56.894Z,5.10
2023-04-14T08:13:56.874Z,5.50
2023-04-14T08:14:56.847Z,5.80
2023-04-14T08:15:56.875Z,5.40
2023-04-14T08:16:56.844Z,5.30
2023-04-14T08:17:56.825Z,5.10
2023-04-14T08:18:58.019Z,5.40
2023-04-14T08:19:56.829Z,5.20
2023-04-14T08:20:56.772Z,5.00
2023-04-14T08:21:56.759Z,5.10
2023-04-14T08:22:56.758Z,4.60
2023-04-14T08:23:56.763Z,4.70
2023-04-14T08:24:56.721Z,5.00
2023-04-14T08:25:56.699Z,4.30
2023-04-14T08:26:56.679Z,4.40
2023-04-14T08:27:56.705Z,4.10
2023-04-14T08:28:56.695Z,3.90
2023-04-14T08:29:56.707Z,3.90
2023-04-14T08:30:56.625Z,4.30
2023-04-14T08:31:56.668Z,4.00
2023-04-14T08:32:56.994Z,4.50
2023-04-14T08:33:56.610Z,4.60
2023-04-14T08:35:36.092Z,4.30
2023-04-14T08:35:59.646Z,4.00
2023-04-14T08:36:56.551Z,4.50
2023-04-14T08:37:56.544Z,4.10
2023-04-14T08:38:56.526Z,4.00
2023-04-14T08:39:56.568Z,4.00
2023-04-14T08:40:56.525Z,4.30
2023-04-14T08:41:56.487Z,4.10
2023-04-14T08:42:56.478Z,4.00
2023-04-14T08:43:56.465Z,3.80
2023-04-14T08:44:56.485Z,4.50
2023-04-14T08:45:56.493Z,3.80
2023-04-14T08:46:56.424Z,4.30
2023-04-14T08:47:56.445Z,4.60
2023-04-14T08:48:56.392Z,4.80
2023-04-14T08:49:56.426Z,4.50
2023-04-14T08:50:56.363Z,5.00
2023-04-14T08:51:56.355Z,4.40
2023-04-14T08:52:56.382Z,4.70
2023-04-14T08:53:56.360Z,4.60
2023-04-14T08:54:56.321Z,4.30
2023-04-14T08:55:58.180Z,4.50
2023-04-14T08:56:56.290Z,4.10
2023-04-14T08:57:56.280Z,4.20
2023-04-14T08:58:56.263Z,4.10
2023-04-14T08:59:56.254Z,4.20
2023-04-14T09:00:56.259Z,4.50
2023-04-14T09:01:56.643Z,4.30
2023-04-14T09:02:56.407Z,4.10
2023-04-14T09:03:56.366Z,3.60
2023-04-14T09:04:56.261Z,3.90
2023-04-14T09:05:56.208Z,4.00
2023-04-14T09:06:56.144Z,3.90
2023-04-14T09:07:56.152Z,3.80
2023-04-14T09:08:56.121Z,4.30
2023-04-14T09:09:56.115Z,4.30
2023-04-14T09:10:56.144Z,4.00
2023-04-14T09:11:56.103Z,4.50
2023-04-14T09:12:56.089Z,4.60
2023-04-14T09:13:56.083Z,4.20
2023-04-14T09:14:56.100Z,4.40
2023-04-14T09:15:56.054Z,4.20
2023-04-14T09:16:56.049Z,4.10
2023-04-14T09:17:56.074Z,4.30
2023-04-14T09:18:56.013Z,3.90
2023-04-14T09:20:35.172Z,3.90
2023-04-14T09:21:31.802Z,4.40
2023-04-14T09:21:57.115Z,4.30
2023-04-14T09:22:55.956Z,4.40
2023-04-14T09:23:55.940Z,4.10
2023-04-14T09:24:55.906Z,4.30
2023-04-14T09:25:55.942Z,4.10
2023-04-14T09:26:55.899Z,4.10
2023-04-14T09:27:55.894Z,4.00
2023-04-14T09:28:55.886Z,4.40
2023-04-14T09:29:55.857Z,4.40
2023-04-14T09:30:55.881Z,4.40
2023-04-14T09:31:55.828Z,4.30
2023-04-14T09:32:55.881Z,4.10
2023-04-14T09:33:55.850Z,4.40
2023-04-14T09:34:57.748Z,4.60
2023-04-14T09:35:55.820Z,4.50
2023-04-14T09:36:55.753Z,4.20
2023-04-14T09:37:55.745Z,4.40
2023-04-14T09:38:55.739Z,4.80
2023-04-14T09:39:55.743Z,4.90
2023-04-14T09:40:57.016Z,4.30
2023-04-14T09:41:55.696Z,4.70
2023-04-14T09:42:55.676Z,4.20
2023-04-14T09:43:55.689Z,4.20
2023-04-14T09:44:55.654Z,4.30
2023-04-14T09:45:55.725Z,4.80
2023-04-14T09:46:56.771Z,4.60
2023-04-14T10:03:04.410Z,4.40
2023-04-14T10:04:04.329Z,4.80
2023-04-14T10:05:04.273Z,5.30
2023-04-14T10:06:04.240Z,5.00
2023-04-14T10:07:04.252Z,4.40
2023-04-14T10:08:04.215Z,4.70
2023-04-14T10:09:04.539Z,4.40
2023-04-14T10:10:04.207Z,4.30
2023-04-14T10:11:04.175Z,5.10
2023-04-14T10:12:04.162Z,4.90
2023-04-14T10:13:04.150Z,4.40
2023-04-14T10:14:04.310Z,4.70
2023-04-14T10:15:04.133Z,4.30
2023-04-14T10:16:11.166Z,4.60
2023-04-14T10:17:04.102Z,4.80
2023-04-14T10:18:04.138Z,4.40
2023-04-14T10:19:04.463Z,4.30
2023-04-14T10:20:04.063Z,4.70
2023-04-14T10:21:04.046Z,4.70
2023-04-14T10:22:04.068Z,4.60
2023-04-14T10:23:04.025Z,4.60
2023-04-14T10:24:04.002Z,4.30
2023-04-14T10:25:04.017Z,4.60
2023-04-14T10:26:03.968Z,4.10
2023-04-14T10:27:03.994Z,4.50
2023-04-14T10:28:04.038Z,4.30
2023-04-14T10:29:04.160Z,4.10
2023-04-14T10:30:03.958Z,4.10
2023-04-14T10:31:03.998Z,4.10
2023-04-14T10:32:04.100Z,3.80
2023-04-14T10:33:03.914Z,3.90
2023-04-14T10:34:03.942Z,3.80
2023-04-14T10:35:03.858Z,3.70
2023-04-14T10:36:03.918Z,4.30
2023-04-14T10:37:03.862Z,4.50
2023-04-14T10:38:03.822Z,4.00
2023-04-14T10:39:03.985Z,3.90
2023-04-14T10:40:03.787Z,4.20
2023-04-14T10:41:03.817Z,4.30
2023-04-14T10:42:03.795Z,4.40
2023-04-14T10:43:03.778Z,4.50
2023-04-14T10:44:03.738Z,3.90
2023-04-14T10:45:03.764Z,3.70
2023-04-14T10:46:03.729Z,4.60
2023-04-14T10:47:03.792Z,3.80
2023-04-14T10:48:03.716Z,4.30
2023-04-14T10:49:03.680Z,3.80
2023-04-14T10:50:03.670Z,4.10
2023-04-14T10:51:03.659Z,3.80
2023-04-14T10:52:03.696Z,4.00
2023-04-14T10:53:03.675Z,4.10
2023-04-14T10:54:03.636Z,4.00
2023-04-14T10:55:03.602Z,3.60
2023-04-14T10:56:03.633Z,4.00
2023-04-14T10:57:03.587Z,4.30
2023-04-14T10:58:03.575Z,4.00
2023-04-14T10:59:03.588Z,3.70
2023-04-14T11:00:03.553Z,4.00
2023-04-14T11:01:03.560Z,3.80
2023-04-14T11:02:03.554Z,4.00
2023-04-14T11:03:03.621Z,3.70
2023-04-14T11:04:03.692Z,3.50
2023-04-14T11:05:03.491Z,3.60
2023-04-14T11:06:03.456Z,3.10
2023-04-14T11:07:03.501Z,3.60
2023-04-14T11:08:03.514Z,3.10
2023-04-14T11:09:03.654Z,3.30
2023-04-14T11:10:03.413Z,3.80
2023-04-14T11:11:03.476Z,3.10
2023-04-14T11:12:03.413Z,3.10
2023-04-14T11:13:03.456Z,3.10
2023-04-14T11:14:03.364Z,3.00
2023-04-14T11:15:03.365Z,3.70
2023-04-14T11:16:03.321Z,3.50
2023-04-14T11:17:04.624Z,3.30
2023-04-14T11:18:03.351Z,3.00
2023-04-14T11:19:03.424Z,2.90
2023-04-14T11:20:03.265Z,2.70
2023-04-14T11:21:03.284Z,2.70
2023-04-14T11:22:03.279Z,2.60
2023-04-14T11:23:03.234Z,2.40
2023-04-14T11:24:03.227Z,2.80
2023-04-14T11:25:03.229Z,2.80
2023-04-14T11:26:03.209Z,2.80
2023-04-14T11:27:03.179Z,2.40
2023-04-14T11:28:03.180Z,2.30
2023-04-14T11:29:03.280Z,2.30
2023-04-14T11:30:03.148Z,2.30
2023-04-14T11:31:03.121Z,2.20
2023-04-14T11:32:03.162Z,2.00
2023-04-14T11:33:03.149Z,2.30
2023-04-14T11:34:03.109Z,2.10
2023-04-14T11:35:03.077Z,2.30
2023-04-14T11:36:03.080Z,2.10
2023-04-14T11:37:03.095Z,2.10
2023-04-14T11:38:03.073Z,2.20
2023-04-14T11:39:03.213Z,2.00
2023-04-14T11:40:03.115Z,2.00
2023-04-14T11:41:03.004Z,2.00
2023-04-14T11:42:03.067Z,1.90
2023-04-14T11:43:02.971Z,2.10
2023-04-14T11:44:02.961Z,2.30
2023-04-14T11:45:02.997Z,2.00
2023-04-14T11:46:02.973Z,1.90
2023-04-14T11:47:02.923Z,1.90
2023-04-14T11:48:02.945Z,2.60
2023-04-14T11:49:03.123Z,2.10
2023-04-14T11:50:02.902Z,1.90
2023-04-14T11:51:02.868Z,2.10
2023-04-14T11:52:02.928Z,1.90
2023-04-14T11:53:02.944Z,2.00
2023-04-14T11:54:02.872Z,1.50
2023-04-14T11:55:02.813Z,1.90
2023-04-14T11:56:02.834Z,1.90
2023-04-14T11:57:02.808Z,1.90
2023-04-14T11:58:02.788Z,1.70
2023-04-14T11:59:03.138Z,1.90
2023-04-14T12:00:02.781Z,1.70
2023-04-14T12:01:02.757Z,1.60
2023-04-14T12:02:02.772Z,1.80
2023-04-14T12:03:02.951Z,1.60
2023-04-14T12:04:03.026Z,1.80
2023-04-14T12:05:02.803Z,1.70
2023-04-14T12:06:02.690Z,1.40
2023-04-14T12:07:02.688Z,1.90
2023-04-14T12:08:02.664Z,1.60
2023-04-14T12:09:02.790Z,1.40
2023-04-14T12:10:02.637Z,1.50
2023-04-14T12:11:02.680Z,1.90
2023-04-14T12:12:02.633Z,1.60
2023-04-14T12:13:02.640Z,1.50
2023-04-14T12:14:02.577Z,1.60
2023-04-14T12:15:02.606Z,1.70
2023-04-14T12:16:02.582Z,1.60
2023-04-14T12:17:02.551Z,1.30
2023-04-14T12:18:02.662Z,1.40
2023-04-14T12:19:02.696Z,1.60
2023-04-14T12:20:02.503Z,1.40
2023-04-14T12:21:02.515Z,1.50
2023-04-14T12:22:02.509Z,1.50
2023-04-14T12:23:02.514Z,1.40
2023-04-14T12:24:02.499Z,1.30
2023-04-14T12:25:02.430Z,1.30
2023-04-14T12:26:02.443Z,1.30
2023-04-14T12:27:02.420Z,1.70
2023-04-14T12:28:02.406Z,1.20
2023-04-14T12:29:02.769Z,1.20
2023-04-14T12:30:02.363Z,1.30
2023-04-14T12:31:02.392Z,1.20
2023-04-14T12:32:02.487Z,1.40
2023-04-14T12:33:02.347Z,1.40
2023-04-14T12:34:02.308Z,1.30
2023-04-14T12:35:02.364Z,1.20
2023-04-14T12:36:02.327Z,1.10
2023-04-14T12:37:02.271Z,1.20
2023-04-14T12:38:02.275Z,1.40
2023-04-14T12:39:02.535Z,1.20
2023-04-14T12:40:02.243Z,1.30
2023-04-14T12:41:02.268Z,1.40
2023-04-14T12:42:02.218Z,1.50
2023-04-14T12:43:02.218Z,1.80
2023-04-14T12:44:02.250Z,1.50
2023-04-14T12:45:02.215Z,1.30
2023-04-14T12:46:02.177Z,1.80
2023-04-14T12:47:02.229Z,1.50
2023-04-14T12:48:02.198Z,1.80
2023-04-14T12:49:02.340Z,1.50
2023-04-14T12:50:02.144Z,1.30
2023-04-14T12:51:02.088Z,1.30
2023-04-14T12:52:02.097Z,1.30
2023-04-14T12:53:02.115Z,1.60
2023-04-14T12:54:02.080Z,1.60
2023-04-14T12:55:02.027Z,2.00
2023-04-14T12:56:02.021Z,1.70
2023-04-14T12:57:03.498Z,1.40
2023-04-14T12:58:02.012Z,1.30
2023-04-14T12:59:02.170Z,1.70
2023-04-14T13:00:02.185Z,1.10
2023-04-14T13:01:02.033Z,1.60
2023-04-14T13:02:02.043Z,1.70
2023-04-14T13:03:02.101Z,1.60
2023-04-14T13:04:02.048Z,1.30
2023-04-14T13:05:01.930Z,1.70
2023-04-14T13:06:01.925Z,1.90
2023-04-14T13:07:01.885Z,1.60
2023-04-14T13:08:01.919Z,1.50
2023-04-14T13:09:02.145Z,1.30
2023-04-14T13:10:01.844Z,1.50
2023-04-14T13:11:01.853Z,1.70
2023-04-14T13:12:01.821Z,1.40
2023-04-14T13:13:01.816Z,1.40
2023-04-14T13:14:01.792Z,1.50
2023-04-14T13:15:01.779Z,1.20
2023-04-14T13:16:13.906Z,1.10
2023-04-14T13:17:02.821Z,1.30
2023-04-14T13:18:01.779Z,1.20
2023-04-14T13:19:01.991Z,1.00
2023-04-14T13:20:01.730Z,1.20
2023-04-14T13:21:01.700Z,1.20
2023-04-14T13:22:01.762Z,1.60
2023-04-14T13:23:01.688Z,1.30
2023-04-14T13:24:01.667Z,1.40
2023-04-14T13:25:01.656Z,1.00
2023-04-14T13:26:01.657Z,1.20
2023-04-14T13:27:01.615Z,1.40
2023-04-14T13:28:01.636Z,1.20
2023-04-14T13:29:01.746Z,1.20
2023-04-14T13:30:01.600Z,1.30
2023-04-14T13:31:01.677Z,1.20
2023-04-14T13:32:01.688Z,1.20
2023-04-14T13:33:01.571Z,1.10
2023-04-14T13:34:01.535Z,1.30
2023-04-14T13:35:01.598Z,1.10
2023-04-14T13:36:01.508Z,1.20
2023-04-14T13:37:01.502Z,1.30
2023-04-14T13:38:01.465Z,1.10
2023-04-14T13:39:01.659Z,1.30
2023-04-14T13:40:01.513Z,1.20
2023-04-14T13:41:01.454Z,1.20
2023-04-14T13:42:08.436Z,1.30
2023-04-14T13:43:08.415Z,1.10
2023-04-14T13:44:08.415Z,1.10
2023-04-14T13:45:01.376Z,1.20
2023-04-14T13:46:08.994Z,1.00